createdAt,value
2022-10-11T00:01:20.485Z,5.07
2022-10-11T00:03:47.329Z,3.47
2022-10-11T00:06:13.869Z,4.20
2022-10-11T00:08:40.359Z,3.97
2022-10-11T00:11:08.219Z,3.83
2022-10-11T00:13:35.268Z,4.13
2022-10-11T00:16:07.392Z,3.60
2022-10-11T00:18:34.030Z,3.70
2022-10-11T00:21:06.108Z,3.60
2022-10-11T00:23:33.144Z,4.00
2022-10-11T00:26:00.793Z,3.97
2022-10-11T00:28:27.636Z,3.67
2022-10-11T00:30:54.301Z,3.50
2022-10-11T00:33:20.932Z,3.90
2022-10-11T00:35:48.722Z,5.53
2022-10-11T00:38:15.598Z,3.70
2022-10-11T00:40:42.229Z,4.20
2022-10-11T00:43:20.489Z,3.20
2022-10-11T00:45:58.363Z,3.70
2022-10-11T00:48:37.696Z,3.83
2022-10-11T00:51:08.567Z,3.57
2022-10-11T00:53:35.777Z,4.27
2022-10-11T00:56:09.046Z,4.97
2022-10-11T00:58:36.571Z,4.07
2022-10-11T01:01:03.610Z,3.67
2022-10-11T01:03:31.790Z,4.10
2022-10-11T01:05:58.643Z,4.40
2022-10-11T01:08:25.754Z,3.67
2022-10-11T01:10:52.430Z,3.50
2022-10-11T01:13:40.743Z,4.33
2022-10-11T01:16:28.589Z,4.20
2022-10-11T01:19:01.010Z,5.03
2022-10-11T01:21:41.774Z,4.30
2022-10-11T01:24:28.464Z,4.70
2022-10-11T01:27:26.061Z,3.67
2022-10-11T01:30:15.647Z,4.20
2022-10-11T01:33:20.976Z,4.17
2022-10-11T01:36:27.719Z,4.13
2022-10-11T01:39:00.626Z,4.00
2022-10-11T01:41:49.638Z,4.20
2022-10-11T01:44:16.448Z,4.37
2022-10-11T01:46:43.187Z,4.67
2022-10-11T01:49:09.723Z,4.87
2022-10-11T01:51:45.070Z,3.97
2022-10-11T01:55:03.906Z,4.33
2022-10-11T01:57:56.208Z,5.23
2022-10-11T02:00:25.678Z,4.43
2022-10-11T02:03:34.302Z,5.27
2022-10-11T02:06:11.219Z,4.40
2022-10-11T02:09:07.946Z,4.60
2022-10-11T02:11:35.389Z,5.37
2022-10-11T02:14:10.495Z,5.30
2022-10-11T02:16:46.775Z,3.80
2022-10-11T02:19:16.613Z,4.97
2022-10-11T02:21:44.949Z,5.03
2022-10-11T02:24:21.703Z,5.07
2022-10-11T02:26:52.871Z,4.50
2022-10-11T02:29:20.729Z,5.00
2022-10-11T02:31:48.617Z,4.47
2022-10-11T02:34:19.339Z,5.10
2022-10-11T02:37:01.618Z,5.70
2022-10-11T02:39:42.505Z,4.50
2022-10-11T02:42:26.436Z,4.70
2022-10-11T02:45:22.906Z,4.73
2022-10-11T02:47:49.626Z,4.97
2022-10-11T02:50:16.478Z,4.90
2022-10-11T02:52:43.235Z,4.00
2022-10-11T02:55:10.832Z,4.50
2022-10-11T02:57:37.622Z,3.60
2022-10-11T03:00:04.938Z,4.07
2022-10-11T03:02:31.454Z,3.80
2022-10-11T03:04:57.941Z,4.27
2022-10-11T03:07:24.667Z,3.77
2022-10-11T03:09:51.272Z,4.17
2022-10-11T03:12:17.773Z,3.93
2022-10-11T03:14:44.664Z,4.27
2022-10-11T03:17:34.392Z,4.27
2022-10-11T03:19:57.698Z,5.20
2022-10-11T03:22:24.318Z,4.47
2022-10-11T03:24:50.827Z,3.90
2022-10-11T03:27:17.559Z,3.80
2022-10-11T03:29:44.049Z,3.27
2022-10-11T03:32:10.527Z,4.10
2022-10-11T03:34:36.931Z,3.83
2022-10-11T03:37:03.457Z,3.93
2022-10-11T03:39:29.953Z,4.60
2022-10-11T03:41:56.515Z,3.13
2022-10-11T03:44:23.209Z,4.40
2022-10-11T03:46:49.651Z,3.83
2022-10-11T03:49:16.343Z,4.00
2022-10-11T03:51:42.892Z,3.67
2022-10-11T03:54:09.483Z,3.40
2022-10-11T03:56:35.959Z,3.80
2022-10-11T03:59:02.514Z,4.67
2022-10-11T04:01:29.307Z,3.90
2022-10-11T04:03:57.206Z,4.57
2022-10-11T04:06:23.887Z,4.73
2022-10-11T04:08:50.607Z,4.50
2022-10-11T04:11:17.111Z,4.63
2022-10-11T04:13:43.901Z,3.80
2022-10-11T04:16:10.646Z,4.03
2022-10-11T04:18:37.356Z,4.50
2022-10-11T04:21:04.410Z,4.20
2022-10-11T04:23:31.921Z,4.47
2022-10-11T04:25:58.373Z,3.73
2022-10-11T04:28:25.165Z,3.97
2022-10-11T04:30:52.364Z,4.13
2022-10-11T04:33:19.143Z,4.90
2022-10-11T04:35:45.661Z,5.53
2022-10-11T04:38:12.163Z,5.90
2022-10-11T04:40:39.291Z,5.53
2022-10-11T04:43:06.593Z,5.87
2022-10-11T04:45:33.276Z,6.10
2022-10-11T04:47:59.824Z,7.07
2022-10-11T04:50:26.432Z,6.53
2022-10-11T04:52:53.101Z,6.10
2022-10-11T04:55:19.546Z,6.63
2022-10-11T04:57:46.075Z,5.93
2022-10-11T05:00:13.172Z,5.27
2022-10-11T05:02:39.642Z,5.00
2022-10-11T05:05:06.785Z,5.33
2022-10-11T05:07:33.244Z,5.50
2022-10-11T05:09:59.818Z,4.50
2022-10-11T05:12:26.505Z,5.10
2022-10-11T05:14:52.940Z,4.60
2022-10-11T05:17:19.402Z,5.20
2022-10-11T05:19:45.923Z,5.53
2022-10-11T05:22:12.447Z,6.73
2022-10-11T05:24:38.924Z,5.50
2022-10-11T05:27:05.481Z,5.30
2022-10-11T05:29:32.513Z,5.77
2022-10-11T05:31:59.110Z,5.70
2022-10-11T05:34:25.672Z,7.77
2022-10-11T05:36:52.425Z,7.20
2022-10-11T05:39:18.892Z,6.67
2022-10-11T05:41:45.604Z,6.50
2022-10-11T05:44:12.146Z,6.33
2022-10-11T05:46:38.744Z,6.43
2022-10-11T05:49:05.337Z,6.33
2022-10-11T05:51:32.358Z,5.83
2022-10-11T05:53:58.833Z,6.50
2022-10-11T05:56:26.408Z,6.10
2022-10-11T05:58:53.103Z,5.63
2022-10-11T06:01:27.202Z,5.63
2022-10-11T06:03:54.042Z,5.53
2022-10-11T06:06:20.711Z,5.30
2022-10-11T06:08:48.029Z,5.73
2022-10-11T06:11:20.488Z,5.23
2022-10-11T06:13:47.046Z,6.07
2022-10-11T06:16:13.694Z,5.93
2022-10-11T06:18:40.579Z,5.90
2022-10-11T06:21:07.506Z,5.00
2022-10-11T06:23:34.146Z,5.03
2022-10-11T06:26:05.699Z,5.07
2022-10-11T06:28:34.081Z,5.80
2022-10-11T06:31:01.305Z,5.67
2022-10-11T06:33:27.865Z,5.77
2022-10-11T06:36:02.509Z,5.67
2022-10-11T06:38:29.240Z,6.43
2022-10-11T06:40:56.079Z,5.90
2022-10-11T06:43:22.765Z,6.87
2022-10-11T06:45:49.274Z,6.00
2022-10-11T06:48:15.860Z,6.10
2022-10-11T06:50:59.140Z,6.80
2022-10-11T06:53:27.067Z,7.40
2022-10-11T06:55:53.538Z,8.30
2022-10-11T06:58:20.263Z,7.20
2022-10-11T07:00:47.870Z,7.30
2022-10-11T07:03:14.330Z,7.60
2022-10-11T07:05:42.683Z,7.83
2022-10-11T07:08:09.152Z,7.70
2022-10-11T07:10:36.790Z,7.37
2022-10-11T07:13:03.307Z,7.40
2022-10-11T07:15:29.914Z,8.23
2022-10-11T07:17:56.452Z,6.97
2022-10-11T07:20:23.157Z,7.30
2022-10-11T07:22:49.978Z,9.03
2022-10-11T07:25:18.790Z,8.53
2022-10-11T07:27:45.370Z,8.80
2022-10-11T07:30:13.256Z,10.50
2022-10-11T07:32:39.769Z,10.47
2022-10-11T07:35:06.616Z,9.50
2022-10-11T07:37:33.906Z,10.77
2022-10-11T07:40:01.014Z,11.23
2022-10-11T07:42:27.509Z,10.47
2022-10-11T07:44:54.305Z,10.87
2022-10-11T07:47:20.756Z,10.40
2022-10-11T07:49:47.234Z,10.50
2022-10-11T07:52:13.727Z,11.80
2022-10-11T07:54:40.738Z,10.60
2022-10-11T07:57:07.559Z,10.47
2022-10-11T07:59:34.161Z,10.40
2022-10-11T08:02:00.714Z,12.93
2022-10-11T08:04:27.264Z,11.70
2022-10-11T08:06:53.795Z,12.33
2022-10-11T08:09:20.340Z,12.00
2022-10-11T08:11:46.847Z,12.57
2022-10-11T08:14:13.307Z,11.03
2022-10-11T08:16:39.859Z,11.13
2022-10-11T08:19:06.679Z,11.30
2022-10-11T08:21:33.687Z,11.77
2022-10-11T08:24:02.043Z,9.10
2022-10-11T08:26:28.771Z,10.50
2022-10-11T08:28:55.554Z,10.13
2022-10-11T08:31:22.199Z,11.13
2022-10-11T08:33:48.714Z,11.53
2022-10-11T08:36:15.463Z,11.20
2022-10-11T08:38:42.177Z,11.63
2022-10-11T08:41:26.068Z,11.07
2022-10-11T08:44:01.765Z,12.33
2022-10-11T08:46:31.977Z,10.43
2022-10-11T08:49:00.340Z,9.90
2022-10-11T08:51:40.722Z,9.30
2022-10-11T08:54:25.941Z,10.30
2022-10-11T08:56:52.881Z,9.23
2022-10-11T08:59:47.282Z,8.87
2022-10-11T09:03:07.383Z,9.43
2022-10-11T09:05:49.219Z,8.80
2022-10-11T09:08:40.589Z,8.60
2022-10-11T09:11:30.698Z,8.87
2022-10-11T09:14:38.533Z,7.40
2022-10-11T09:17:39.030Z,7.33
2022-10-11T09:20:27.254Z,8.87
2022-10-11T09:23:09.510Z,7.30
2022-10-11T09:25:53.356Z,8.03
2022-10-11T09:28:35.324Z,6.80
2022-10-11T09:31:02.329Z,8.27
2022-10-11T09:33:36.852Z,7.87
2022-10-11T09:36:14.630Z,6.60
2022-10-11T09:38:46.816Z,7.37
2022-10-11T09:41:34.578Z,7.00
2022-10-11T09:44:01.078Z,5.70
2022-10-11T09:46:40.509Z,4.80
2022-10-11T09:49:14.385Z,5.60
2022-10-11T09:51:44.309Z,4.30
2022-10-11T09:54:10.945Z,4.60
2022-10-11T09:56:42.888Z,5.80
2022-10-11T09:59:31.692Z,4.63
2022-10-11T10:02:13.544Z,4.87
2022-10-11T10:05:06.857Z,4.20
2022-10-11T10:07:34.649Z,4.60
2022-10-11T10:10:27.509Z,4.60
2022-10-11T10:12:55.229Z,4.10
2022-10-11T10:15:22.251Z,4.10
2022-10-11T10:17:50.651Z,5.23
2022-10-11T10:20:23.885Z,4.10
2022-10-11T10:22:50.603Z,4.03
2022-10-11T10:25:22.506Z,3.90
2022-10-11T10:28:00.846Z,3.00
2022-10-11T10:30:29.765Z,3.47
2022-10-11T10:33:03.175Z,3.53
2022-10-11T10:35:45.636Z,3.70
2022-10-11T10:38:12.354Z,4.17
2022-10-11T10:40:53.748Z,3.10
2022-10-11T10:43:24.188Z,3.83
2022-10-11T10:46:09.590Z,2.87
2022-10-11T10:49:28.365Z,3.10
2022-10-11T10:51:57.756Z,3.03
2022-10-11T10:54:48.833Z,3.80
2022-10-11T10:57:24.282Z,3.37
2022-10-11T11:00:06.175Z,3.13
2022-10-11T11:02:43.437Z,3.83
2022-10-11T11:05:21.167Z,3.70
2022-10-11T11:08:12.719Z,3.10
2022-10-11T11:10:46.447Z,3.73
2022-10-11T11:13:35.980Z,3.03
2022-10-11T11:16:36.227Z,2.87
2022-10-11T11:19:14.514Z,3.50
2022-10-11T11:21:46.978Z,3.23
2022-10-11T11:24:25.480Z,3.57
2022-10-11T11:26:57.954Z,2.90
2022-10-11T11:29:40.119Z,3.13
2022-10-11T11:32:23.284Z,3.23
2022-10-11T11:34:54.261Z,3.47
2022-10-11T11:37:28.479Z,3.33
2022-10-11T11:40:00.324Z,3.67
2022-10-11T11:42:36.018Z,4.50
2022-10-11T11:45:11.725Z,3.93
2022-10-11T11:47:42.007Z,3.37
2022-10-11T11:50:22.701Z,3.07
2022-10-11T11:52:55.828Z,2.87
2022-10-11T11:55:59.594Z,2.80
2022-10-11T11:58:50.386Z,2.80
2022-10-11T12:01:37.802Z,3.33
2022-10-11T12:04:24.556Z,3.03
2022-10-11T12:07:17.691Z,3.03
2022-10-11T12:09:50.741Z,3.10
2022-10-11T12:12:43.663Z,2.83
2022-10-11T12:15:10.345Z,3.20
2022-10-11T12:18:02.888Z,3.60
2022-10-11T12:20:38.705Z,3.03
2022-10-11T12:23:30.812Z,3.03
2022-10-11T12:26:29.472Z,3.13
2022-10-11T12:29:24.546Z,2.70
2022-10-11T12:31:57.175Z,3.10
2022-10-11T12:34:26.699Z,3.20
2022-10-11T12:36:53.407Z,3.40
2022-10-11T12:39:19.952Z,2.83
2022-10-11T12:41:50.386Z,2.73
2022-10-11T12:44:24.554Z,1.93
2022-10-11T12:46:51.186Z,3.73
2022-10-11T12:49:24.447Z,2.40
2022-10-11T12:51:58.605Z,2.60
2022-10-11T12:54:49.856Z,2.50
2022-10-11T12:57:35.204Z,3.23
2022-10-11T13:00:48.419Z,2.60
2022-10-11T13:03:45.299Z,2.97
2022-10-11T13:06:17.791Z,2.60
2022-10-11T13:08:57.523Z,2.37
2022-10-11T13:11:29.323Z,2.27
2022-10-11T13:13:59.976Z,2.20
2022-10-11T13:17:04.906Z,2.07
2022-10-11T13:19:35.175Z,2.30
2022-10-11T13:22:05.566Z,2.20
2022-10-11T13:24:38.541Z,2.60
2022-10-11T13:27:07.700Z,2.90
2022-10-11T13:29:40.030Z,2.73
2022-10-11T13:32:12.285Z,2.43
2022-10-11T13:34:40.634Z,2.47
2022-10-11T13:37:08.119Z,2.57
2022-10-11T13:39:37.657Z,2.50
2022-10-11T13:42:10.803Z,2.63
2022-10-11T13:44:38.820Z,3.00
2022-10-11T13:47:06.299Z,2.37
2022-10-11T13:49:40.003Z,2.70
2022-10-11T13:52:22.037Z,3.23
2022-10-11T13:54:57.932Z,2.67
2022-10-11T13:57:41.153Z,2.73
2022-10-11T14:00:22.851Z,2.20
2022-10-11T14:02:57.395Z,2.63
2022-10-11T14:05:32.210Z,2.30
2022-10-11T14:08:01.032Z,2.00
2022-10-11T14:10:27.883Z,2.40
2022-10-11T14:13:06.827Z,2.80
2022-10-11T14:15:38.118Z,2.60
2022-10-11T14:18:33.657Z,2.47
2022-10-11T14:21:20.698Z,2.40
2022-10-11T14:23:50.458Z,2.80
2022-10-11T14:26:19.099Z,2.07
2022-10-11T14:28:46.377Z,2.20
2022-10-11T14:31:13.097Z,2.77
2022-10-11T14:33:39.815Z,2.30
2022-10-11T14:36:06.898Z,2.93
2022-10-11T14:38:33.936Z,2.53
2022-10-11T14:41:00.488Z,3.83
2022-10-11T14:43:27.005Z,2.87
2022-10-11T14:45:53.900Z,2.20
2022-10-11T14:48:43.129Z,3.20
2022-10-11T14:51:07.374Z,2.30
2022-10-11T14:53:38.673Z,2.40
2022-10-11T14:56:07.941Z,2.20
2022-10-11T14:58:34.837Z,2.13
2022-10-11T15:01:01.575Z,2.13
2022-10-11T15:03:28.091Z,1.93
2022-10-11T15:05:54.656Z,1.90
2022-10-11T15:08:21.116Z,2.10
2022-10-11T15:10:47.582Z,2.50
2022-10-11T15:13:14.187Z,2.10
2022-10-11T15:15:41.212Z,2.20
2022-10-11T15:18:12.217Z,2.40
2022-10-11T15:20:42.492Z,2.20
2022-10-11T15:23:09.993Z,3.70
2022-10-11T15:25:38.282Z,2.83
2022-10-11T15:28:05.466Z,2.57
2022-10-11T15:30:38.487Z,2.70
2022-10-11T15:33:08.396Z,2.53
2022-10-11T15:35:35.064Z,2.40
2022-10-11T15:38:01.609Z,2.10
2022-10-11T15:40:33.301Z,2.53
2022-10-11T15:42:59.981Z,2.30
2022-10-11T15:45:26.755Z,3.03
2022-10-11T15:47:53.798Z,2.63
2022-10-11T15:50:34.388Z,2.63
2022-10-11T15:53:15.186Z,2.63
2022-10-11T15:55:47.857Z,2.60
2022-10-11T15:58:16.677Z,2.17
2022-10-11T16:00:44.462Z,2.30
2022-10-11T16:03:13.279Z,2.50
2022-10-11T16:05:40.950Z,2.30
2022-10-11T16:08:08.148Z,2.17
2022-10-11T16:10:34.704Z,2.37
2022-10-11T16:13:01.965Z,2.20
2022-10-11T16:15:29.159Z,2.70
2022-10-11T16:17:55.982Z,2.93
2022-10-11T16:20:24.556Z,4.47
2022-10-11T16:22:53.515Z,3.77
2022-10-11T16:25:59.759Z,3.57
2022-10-11T16:28:27.521Z,3.60
2022-10-11T16:30:54.526Z,2.47
2022-10-11T16:33:21.313Z,3.17
2022-10-11T16:35:47.838Z,3.10
2022-10-11T16:38:14.417Z,2.93
2022-10-11T16:40:43.299Z,3.60
2022-10-11T16:43:10.144Z,2.93
2022-10-11T16:45:36.995Z,3.70
2022-10-11T16:48:04.082Z,4.40
2022-10-11T16:50:33.413Z,4.77
2022-10-11T16:53:03.421Z,3.30
2022-10-11T16:55:29.991Z,6.30
2022-10-11T16:57:56.469Z,7.83
2022-10-11T17:00:23.251Z,6.50
2022-10-11T17:02:50.032Z,5.43
2022-10-11T17:05:17.307Z,5.83
2022-10-11T17:07:43.756Z,6.23
2022-10-11T17:10:10.441Z,7.03
2022-10-11T17:12:38.599Z,6.20
2022-10-11T17:15:05.925Z,7.67
2022-10-11T17:17:32.613Z,6.40
2022-10-11T17:20:02.323Z,6.70
2022-10-11T17:22:29.001Z,6.82
2022-10-11T17:24:56.818Z,6.00
2022-10-11T17:27:23.374Z,6.27
2022-10-11T17:29:49.896Z,5.80
2022-10-11T17:32:17.283Z,5.80
2022-10-11T17:34:43.837Z,5.23
2022-10-11T17:37:12.508Z,4.63
2022-10-11T17:39:39.023Z,5.30
2022-10-11T17:42:07.569Z,4.77
2022-10-11T17:44:35.589Z,5.70
2022-10-11T17:47:02.762Z,5.07
2022-10-11T17:49:30.315Z,5.23
2022-10-11T17:51:57.608Z,4.77
2022-10-11T17:54:25.687Z,4.87
2022-10-11T17:56:52.229Z,5.77
2022-10-11T17:59:21.493Z,4.97
2022-10-11T18:01:49.525Z,5.50
2022-10-11T18:04:17.405Z,4.90
2022-10-11T18:06:45.864Z,5.50
2022-10-11T18:09:13.646Z,8.77
2022-10-11T18:11:40.341Z,10.30
2022-10-11T18:14:07.010Z,7.00
2022-10-11T18:16:34.574Z,8.30
2022-10-11T18:19:03.262Z,7.40
2022-10-11T18:21:34.406Z,7.10
2022-10-11T18:24:02.940Z,7.50
2022-10-11T18:26:30.622Z,8.07
2022-10-11T18:28:58.688Z,9.03
2022-10-11T18:31:28.002Z,9.20
2022-10-11T18:33:55.086Z,9.73
2022-10-11T18:36:24.795Z,7.67
2022-10-11T18:38:56.930Z,8.10
2022-10-11T18:41:30.443Z,7.63
2022-10-11T18:44:00.151Z,7.70
2022-10-11T18:46:27.453Z,8.00
2022-10-11T18:48:55.824Z,6.90
2022-10-11T18:51:31.011Z,7.77
2022-10-11T18:54:01.176Z,7.17
2022-10-11T18:56:29.364Z,7.70
2022-10-11T18:58:57.106Z,7.70
2022-10-11T19:01:29.507Z,6.87
2022-10-11T19:03:58.072Z,7.23
2022-10-11T19:06:27.702Z,6.80
2022-10-11T19:08:56.112Z,7.40
2022-10-11T19:11:25.216Z,9.10
2022-10-11T19:13:56.716Z,10.90
2022-10-11T19:16:23.758Z,11.97
2022-10-11T19:18:50.882Z,12.17
2022-10-11T19:21:17.926Z,12.60
2022-10-11T19:23:46.095Z,12.27
2022-10-11T19:26:15.463Z,14.20
2022-10-11T19:28:42.814Z,12.43
2022-10-11T19:31:11.692Z,13.23
2022-10-11T19:33:38.672Z,12.10
2022-10-11T19:36:06.846Z,12.77
2022-10-11T19:38:35.155Z,11.80
2022-10-11T19:41:03.253Z,12.57
2022-10-11T19:43:29.775Z,11.83
2022-10-11T19:46:08.658Z,12.10
2022-10-11T19:48:39.470Z,12.00
2022-10-11T19:51:12.453Z,11.27
2022-10-11T19:53:39.589Z,11.23
2022-10-11T19:56:09.189Z,9.17
2022-10-11T19:58:35.981Z,10.77
2022-10-11T20:01:09.990Z,10.03
2022-10-11T20:03:37.690Z,10.20
2022-10-11T20:06:06.692Z,10.27
2022-10-11T20:08:34.639Z,10.77
2022-10-11T20:11:03.677Z,10.50
2022-10-11T20:13:34.696Z,10.27
2022-10-11T20:16:07.361Z,11.27
2022-10-11T20:18:34.158Z,10.70
2022-10-11T20:21:05.470Z,10.20
2022-10-11T20:23:33.424Z,10.27
2022-10-11T20:26:01.780Z,11.63
2022-10-11T20:28:30.771Z,12.20
2022-10-11T20:30:58.684Z,11.33
2022-10-11T20:33:25.733Z,12.37
2022-10-11T20:35:58.979Z,11.63
2022-10-11T20:38:25.626Z,12.97
2022-10-11T20:40:52.603Z,12.77
2022-10-11T20:43:19.219Z,12.23
2022-10-11T20:45:48.323Z,13.50
2022-10-11T20:48:17.319Z,13.77
2022-10-11T20:50:44.694Z,13.37
2022-10-11T20:53:16.160Z,12.40
2022-10-11T20:55:42.874Z,13.10
2022-10-11T20:58:09.643Z,14.67
2022-10-11T21:00:39.238Z,12.87
2022-10-11T21:03:06.367Z,15.27
2022-10-11T21:05:33.250Z,13.83
2022-10-11T21:07:59.749Z,15.23
2022-10-11T21:10:27.406Z,13.53
2022-10-11T21:12:55.363Z,14.63
2022-10-11T21:15:22.127Z,14.63
2022-10-11T21:17:48.657Z,13.90
2022-10-11T21:20:15.338Z,14.03
2022-10-11T21:22:41.827Z,14.50
2022-10-11T21:25:08.438Z,14.93
2022-10-11T21:27:35.220Z,15.13
2022-10-11T21:30:02.021Z,13.40
2022-10-11T21:32:28.713Z,15.17
2022-10-11T21:34:55.214Z,14.73
2022-10-11T21:37:22.051Z,14.40
2022-10-11T21:39:48.559Z,12.70
2022-10-11T21:42:15.083Z,14.40
2022-10-11T21:44:43.401Z,14.30
2022-10-11T21:47:10.208Z,14.70
2022-10-11T21:49:36.957Z,13.33
2022-10-11T21:52:03.734Z,12.80
2022-10-11T21:54:30.196Z,12.50
2022-10-11T21:56:56.862Z,12.87
2022-10-11T21:59:23.364Z,12.47
2022-10-11T22:01:49.921Z,13.10
2022-10-11T22:04:16.817Z,12.80
2022-10-11T22:06:43.309Z,13.67
2022-10-11T22:09:10.221Z,14.63
2022-10-11T22:11:37.178Z,17.50
2022-10-11T22:14:03.719Z,14.70
2022-10-11T22:16:30.541Z,19.10
2022-10-11T22:18:57.054Z,17.43
2022-10-11T22:21:23.853Z,18.40
2022-10-11T22:23:52.365Z,19.40
2022-10-11T22:26:24.975Z,17.70
2022-10-11T22:28:53.218Z,16.37
2022-10-11T22:31:20.915Z,14.47
2022-10-11T22:33:48.225Z,15.10
2022-10-11T22:36:19.106Z,13.80
2022-10-11T22:38:45.665Z,14.87
2022-10-11T22:41:12.251Z,15.80
2022-10-11T22:43:39.109Z,15.10
2022-10-11T22:46:06.123Z,14.80
2022-10-11T22:48:33.255Z,15.00
2022-10-11T22:51:00.151Z,15.10
2022-10-11T22:53:26.663Z,14.47
2022-10-11T22:55:53.232Z,13.40
2022-10-11T22:58:19.824Z,12.67
2022-10-11T23:00:46.542Z,12.87
2022-10-11T23:03:14.161Z,14.60
2022-10-11T23:05:40.665Z,12.00
2022-10-11T23:08:09.429Z,13.20
2022-10-11T23:10:39.982Z,13.70
2022-10-11T23:13:06.997Z,13.60
2022-10-11T23:15:33.522Z,14.43
2022-10-11T23:18:00.147Z,14.10
2022-10-11T23:20:26.676Z,17.17
2022-10-11T23:23:00.616Z,15.17
2022-10-11T23:25:27.440Z,16.57
2022-10-11T23:27:54.005Z,16.97
2022-10-11T23:30:20.651Z,17.23
2022-10-11T23:32:47.373Z,16.50
2022-10-11T23:35:13.983Z,15.37
2022-10-11T23:37:40.638Z,15.23
2022-10-11T23:40:08.253Z,13.50
2022-10-11T23:42:34.668Z,14.43
2022-10-11T23:45:01.561Z,15.47
2022-10-11T23:47:28.013Z,14.50
2022-10-11T23:49:54.526Z,14.57
2022-10-11T23:52:20.983Z,13.73
2022-10-11T23:54:47.442Z,13.30
2022-10-11T23:57:14.163Z,14.50
2022-10-11T23:59:40.737Z,15.30
